This is the latest recevied weather packets stored in our database for station/object DG8RAD-1. If no packets are shown the sender has not sent any weather packets the latest 10 day(s).
| Time | Temp. | Humidity | Pressure | Rain* | Wind** | Luminosity | Snow |
|---|---|---|---|---|---|---|---|
| 1777844705 | 25° C | 30% | 1016 hPa | 0 mm | - | - | - |
| 1777843805 | 25.56° C | 29% | 1015 hPa | 0 mm | - | - | - |
| 1777842905 | 25.56° C | 27% | 1015 hPa | 0 mm | - | - | - |
| 1777842005 | 25° C | 28% | 1015 hPa | 0 mm | - | - | - |
| 1777841106 | 25.56° C | 28% | 1015 hPa | 0 mm | - | - | - |
| 1777840205 | 25.56° C | 28% | 1015 hPa | 0 mm | - | - | - |
| 1777839305 | 25.56° C | 28% | 1015 hPa | 0 mm | - | - | - |
| 1777838405 | 25° C | 30% | 1015 hPa | 0 mm | - | - | - |
| 1777837505 | 25.56° C | 30% | 1015 hPa | 0 mm | - | - | - |
| 1777836605 | 26.11° C | 28% | 1014 hPa | 0 mm | - | - | - |
| 1777835705 | 26.67° C | 27% | 1015 hPa | 0 mm | - | - | - |
| 1777834805 | 26.67° C | 26% | 1014 hPa | 0 mm | - | - | - |
| 1777833905 | 27.78° C | 24% | 1014 hPa | 0 mm | - | - | - |
| 1777833005 | 28.33° C | 23% | 1014 hPa | 0 mm | - | - | - |
| 1777832105 | 28.33° C | 22% | 1014 hPa | 0 mm | - | - | - |
| 1777831205 | 28.33° C | 22% | 1014 hPa | 0 mm | - | - | - |
| 1777830305 | 28.89° C | 21% | 1014 hPa | 0 mm | - | - | - |
| 1777829405 | 29.44° C | 21% | 1014 hPa | 0 mm | - | - | - |
| 1777828505 | 29.44° C | 20% | 1014 hPa | 0 mm | - | - | - |
| 1777827605 | 30.56° C | 19% | 1014 hPa | 0 mm | - | - | - |
| 1777826705 | 31.67° C | 16% | 1014 hPa | 0 mm | - | - | - |
| 1777825805 | 33.89° C | 14% | 1014 hPa | 0 mm | - | - | - |
| 1777824905 | 36.11° C | 13% | 1014 hPa | 0 mm | - | - | - |
| 1777824005 | -12.22° C | - | - | - | - | - | - |
| 1777823105 | -12.22° C | - | - | - | - | - | - |
* Rain latest hour (hover to see other rain measurements)
** Current wind speed in m/s (hover to see current wind gust speed)